Time;durP1;ratioP1;P1;durP2;ratioP2;P2;SDS_P1;SDS_P2;PMS_P1;PMS_P2;Temp;Humidity;BMP_temperature;BMP_pressure;BME280_temperature;BME280_humidity;BME280_pressure;Samples;Min_cycle;Max_cycle;Signal;HPM_P1;HPM_P2
2023/04/20 00:02:06;;;;;;;0.10;0.10;;;9.30;99.90;;;;;;5032988;28;20072;-62
2023/04/20 00:04:33;;;;;;;0.10;0.10;;;9.20;99.90;;;;;;5031110;28;20103;-62
2023/04/20 00:06:58;;;;;;;0.10;0.10;;;9.20;99.90;;;;;;5015360;28;20049;-62
2023/04/20 00:09:25;;;;;;;0.10;0.10;;;9.20;99.90;;;;;;5026482;28;20099;-62
2023/04/20 00:11:51;;;;;;;0.70;0.70;;;9.20;99.90;;;;;;5030200;28;20048;-62
2023/04/20 00:14:17;;;;;;;0.30;0.30;;;9.20;99.90;;;;;;5012131;28;20042;-62
2023/04/20 00:16:43;;;;;;;0.10;0.10;;;9.10;99.90;;;;;;5019414;28;20092;-62
2023/04/20 00:19:09;;;;;;;0.10;0.10;;;9.10;99.90;;;;;;5026932;28;20042;-62
2023/04/20 00:21:35;;;;;;;0.20;0.20;;;9.10;99.90;;;;;;5024646;28;20561;-62
2023/04/20 00:24:01;;;;;;;0.10;0.10;;;9.10;99.90;;;;;;5018254;28;20073;-62
2023/04/20 00:26:26;;;;;;;0.10;0.10;;;9.10;99.90;;;;;;5019577;28;20049;-62
2023/04/20 00:28:52;;;;;;;0.10;0.10;;;9.10;99.90;;;;;;5029887;28;20504;-62
2023/04/20 00:31:19;;;;;;;0.10;0.10;;;9.10;99.90;;;;;;5026769;28;20069;-62
2023/04/20 00:33:44;;;;;;;0.10;0.10;;;9.10;99.90;;;;;;5020175;28;20092;-62
2023/04/20 00:36:10;;;;;;;0.10;0.10;;;9.10;99.90;;;;;;5013906;28;20042;-62
2023/04/20 00:38:35;;;;;;;4.05;1.17;;;9.10;99.90;;;;;;5025387;28;20128;-62
2023/04/20 00:41:01;;;;;;;3.47;0.82;;;9.10;99.90;;;;;;5015119;28;20119;-62
2023/04/20 00:43:27;;;;;;;0.00;0.00;;;9.10;99.90;;;;;;5025242;28;20136;-62
2023/04/20 00:45:53;;;;;;;4.47;1.90;;;9.10;99.90;;;;;;5032261;28;20041;-62
2023/04/20 00:48:19;;;;;;;0.10;0.10;;;9.00;99.90;;;;;;5016772;28;20053;-62
2023/04/20 00:50:45;;;;;;;0.30;0.30;;;9.10;99.90;;;;;;5028371;28;20132;-62
2023/04/20 00:53:12;;;;;;;0.20;0.20;;;9.00;99.90;;;;;;5032559;28;20045;-62
2023/04/20 00:55:38;;;;;;;0.10;0.10;;;9.10;99.90;;;;;;5024312;28;20044;-62
2023/04/20 00:58:04;;;;;;;0.20;0.20;;;9.00;99.90;;;;;;5025182;28;20046;-62
2023/04/20 01:00:30;;;;;;;0.38;0.38;;;9.00;99.90;;;;;;5024286;28;20073;-62
2023/04/20 01:02:56;;;;;;;0.75;0.63;;;9.00;99.90;;;;;;5024531;28;20096;-62
2023/04/20 01:05:21;;;;;;;0.73;0.73;;;9.10;99.90;;;;;;5031530;28;20398;-62
2023/04/20 01:07:47;;;;;;;0.20;0.20;;;9.10;99.90;;;;;;5017815;28;20046;-62
2023/04/20 01:10:13;;;;;;;0.08;0.08;;;9.10;99.90;;;;;;5020732;28;20750;-62
2023/04/20 01:12:39;;;;;;;0.00;0.00;;;9.10;99.90;;;;;;5016461;28;20045;-62
2023/04/20 01:15:05;;;;;;;0.10;0.10;;;9.20;99.90;;;;;;5012695;28;20044;-62
2023/04/20 01:17:32;;;;;;;0.40;0.30;;;9.20;99.90;;;;;;5016455;28;20049;-62
2023/04/20 01:19:59;;;;;;;0.10;0.10;;;9.20;99.90;;;;;;5018136;28;20054;-62
2023/04/20 01:22:25;;;;;;;0.10;0.10;;;9.20;99.90;;;;;;5031270;28;20073;-62
2023/04/20 01:24:51;;;;;;;0.10;0.10;;;9.10;99.90;;;;;;5028339;28;20053;-62
2023/04/20 01:27:16;;;;;;;0.22;0.22;;;9.20;99.90;;;;;;5018252;28;20370;-62
2023/04/20 01:29:42;;;;;;;0.10;0.10;;;9.20;99.90;;;;;;5031213;28;20041;-62
2023/04/20 01:32:08;;;;;;;0.10;0.10;;;9.10;99.90;;;;;;5028039;28;20091;-62
2023/04/20 01:34:34;;;;;;;13.55;1.85;;;9.20;99.90;;;;;;5012395;28;20827;-62
2023/04/20 01:37:00;;;;;;;0.10;0.10;;;9.10;99.90;;;;;;5011512;28;20138;-62
2023/04/20 01:39:26;;;;;;;0.10;0.10;;;9.10;99.90;;;;;;5030578;28;20128;-62
2023/04/20 01:41:52;;;;;;;0.10;0.10;;;9.10;99.90;;;;;;5016905;28;20149;-62
2023/04/20 01:44:18;;;;;;;1.50;1.40;;;9.10;99.90;;;;;;5020362;28;20045;-62
2023/04/20 01:46:43;;;;;;;0.10;0.10;;;9.10;99.90;;;;;;5024232;28;20117;-62
2023/04/20 01:49:09;;;;;;;0.10;0.10;;;9.10;99.90;;;;;;5017651;28;20046;-62
2023/04/20 01:51:35;;;;;;;1.17;1.13;;;9.10;99.90;;;;;;5018045;28;20413;-62
2023/04/20 01:54:01;;;;;;;0.00;0.00;;;9.20;99.90;;;;;;5030646;28;20057;-62
2023/04/20 01:56:27;;;;;;;0.10;0.10;;;9.20;99.90;;;;;;5030910;28;20072;-62
2023/04/20 01:58:53;;;;;;;0.00;0.00;;;9.20;99.90;;;;;;5024847;28;20819;-61
2023/04/20 02:01:18;;;;;;;0.10;0.10;;;9.20;99.90;;;;;;5021984;28;20063;-62
2023/04/20 02:03:44;;;;;;;36.20;1.10;;;9.20;99.90;;;;;;5025003;28;20042;-62
2023/04/20 02:06:10;;;;;;;0.30;0.30;;;9.20;99.90;;;;;;5022698;28;20482;-62
2023/04/20 02:08:36;;;;;;;0.90;0.57;;;9.20;99.90;;;;;;5019645;28;20044;-62
2023/04/20 02:11:01;;;;;;;0.10;0.10;;;9.20;99.90;;;;;;5025584;28;20489;-62
2023/04/20 02:13:27;;;;;;;0.10;0.10;;;9.20;99.90;;;;;;5022598;28;20044;-61
2023/04/20 02:15:52;;;;;;;0.08;0.08;;;9.10;99.90;;;;;;5012378;28;20042;-62
2023/04/20 02:18:18;;;;;;;0.35;0.35;;;9.00;99.90;;;;;;5029864;28;20064;-62
2023/04/20 02:20:44;;;;;;;1.75;1.15;;;9.00;99.90;;;;;;5029654;28;20095;-62
2023/04/20 02:23:10;;;;;;;0.32;0.32;;;9.00;99.90;;;;;;5019342;28;20132;-62
2023/04/20 02:25:36;;;;;;;0.20;0.20;;;8.90;99.90;;;;;;5024947;28;20113;-62
2023/04/20 02:28:02;;;;;;;0.10;0.10;;;8.90;99.90;;;;;;5016243;28;20504;-62
2023/04/20 02:30:27;;;;;;;0.20;0.20;;;8.90;99.90;;;;;;5021970;28;20049;-62
2023/04/20 02:32:53;;;;;;;0.10;0.10;;;8.90;99.90;;;;;;5016684;28;20037;-62
2023/04/20 02:35:18;;;;;;;0.30;0.25;;;9.00;99.90;;;;;;5022416;28;20545;-62
2023/04/20 02:37:44;;;;;;;1.30;0.68;;;9.00;99.90;;;;;;5017047;28;20041;-62
2023/04/20 02:40:11;;;;;;;0.10;0.10;;;9.00;99.90;;;;;;5028548;28;20056;-62
2023/04/20 02:42:36;;;;;;;0.20;0.20;;;9.00;99.90;;;;;;5011233;28;20054;-62
2023/04/20 02:45:02;;;;;;;0.10;0.10;;;8.90;99.90;;;;;;5022489;28;20509;-62
2023/04/20 02:47:28;;;;;;;0.00;0.00;;;8.90;99.90;;;;;;5019128;28;20179;-62
2023/04/20 02:49:53;;;;;;;0.65;0.65;;;8.90;99.90;;;;;;5022246;28;20049;-62
2023/04/20 02:52:19;;;;;;;0.00;0.00;;;8.90;99.90;;;;;;5016192;28;20509;-62
2023/04/20 02:54:45;;;;;;;0.82;0.82;;;8.90;99.90;;;;;;5029515;28;20045;-62
2023/04/20 02:57:10;;;;;;;0.10;0.10;;;8.90;99.90;;;;;;5013531;28;20052;-62
2023/04/20 02:59:36;;;;;;;0.10;0.10;;;8.90;99.90;;;;;;5020988;28;20489;-61
2023/04/20 03:02:03;;;;;;;0.40;0.40;;;8.90;99.90;;;;;;5012450;28;20099;-61
2023/04/20 03:04:29;;;;;;;0.00;0.00;;;8.90;99.90;;;;;;5022407;28;20042;-62
2023/04/20 03:06:55;;;;;;;0.10;0.10;;;8.90;99.90;;;;;;5022885;28;20130;-62
2023/04/20 03:09:22;;;;;;;0.10;0.10;;;8.90;99.90;;;;;;5021903;28;20064;-62
2023/04/20 03:11:48;;;;;;;0.10;0.10;;;8.90;99.90;;;;;;5029552;28;20045;-62
2023/04/20 03:14:13;;;;;;;0.00;0.00;;;8.90;99.90;;;;;;5017973;28;20080;-62
2023/04/20 03:16:39;;;;;;;0.08;0.08;;;8.90;99.90;;;;;;5028409;28;20489;-62
2023/04/20 03:19:05;;;;;;;0.10;0.10;;;8.80;99.90;;;;;;5016363;28;20045;-62
2023/04/20 03:21:31;;;;;;;0.00;0.00;;;8.80;99.90;;;;;;5028317;28;20044;-62
2023/04/20 03:23:57;;;;;;;3.78;1.23;;;8.70;99.90;;;;;;5027783;28;20085;-62
2023/04/20 03:26:23;;;;;;;0.00;0.00;;;8.80;99.90;;;;;;5014462;28;20085;-62
2023/04/20 03:28:49;;;;;;;0.20;0.20;;;8.90;99.90;;;;;;5012866;28;20902;-61
2023/04/20 03:31:15;;;;;;;0.20;0.20;;;8.80;99.90;;;;;;5011349;28;20456;-62
2023/04/20 03:33:41;;;;;;;0.00;0.00;;;8.80;99.90;;;;;;5021945;28;20053;-62
2023/04/20 03:36:06;;;;;;;0.00;0.00;;;8.80;99.90;;;;;;5019130;28;20081;-62
2023/04/20 03:38:32;;;;;;;5.68;1.35;;;8.90;99.90;;;;;;5009460;28;20477;-61
2023/04/20 03:40:58;;;;;;;0.00;0.00;;;8.90;99.90;;;;;;5028475;28;20049;-62
2023/04/20 03:43:23;;;;;;;0.10;0.10;;;8.80;99.90;;;;;;5023350;28;20080;-62
2023/04/20 03:45:49;;;;;;;0.10;0.10;;;8.90;99.90;;;;;;5023230;28;20044;-62
2023/04/20 03:48:15;;;;;;;0.10;0.10;;;8.90;99.90;;;;;;5029609;28;20049;-62
2023/04/20 03:50:40;;;;;;;0.28;0.28;;;8.90;99.90;;;;;;5025625;28;20401;-61
2023/04/20 03:53:06;;;;;;;0.20;0.20;;;8.90;99.90;;;;;;5025233;28;20053;-62
2023/04/20 03:55:31;;;;;;;0.10;0.10;;;9.00;99.90;;;;;;5028485;28;20052;-62
2023/04/20 03:57:57;;;;;;;0.28;0.28;;;8.90;99.90;;;;;;5030524;28;20044;-62
2023/04/20 04:00:23;;;;;;;0.00;0.00;;;9.00;99.90;;;;;;5026371;28;20065;-62
2023/04/20 04:02:49;;;;;;;0.00;0.00;;;9.00;99.90;;;;;;5014442;28;20092;-62
2023/04/20 04:05:15;;;;;;;0.10;0.10;;;9.00;99.90;;;;;;5031257;28;20080;-62
2023/04/20 04:07:40;;;;;;;0.10;0.10;;;9.00;99.90;;;;;;5032033;28;20049;-62
2023/04/20 04:10:06;;;;;;;0.00;0.00;;;9.00;99.90;;;;;;5016613;28;20120;-61
2023/04/20 04:12:32;;;;;;;0.10;0.10;;;9.00;99.90;;;;;;5024599;28;20136;-61
2023/04/20 04:14:57;;;;;;;0.32;0.32;;;8.90;99.90;;;;;;5025769;28;20140;-62
2023/04/20 04:17:23;;;;;;;0.10;0.10;;;9.00;99.90;;;;;;5018228;28;20042;-62
2023/04/20 04:19:49;;;;;;;0.10;0.10;;;9.00;99.90;;;;;;5030825;28;20049;-61
2023/04/20 04:22:14;;;;;;;1.02;1.02;;;9.00;99.90;;;;;;5030374;28;20475;-62
2023/04/20 04:24:40;;;;;;;0.00;0.00;;;9.00;99.90;;;;;;5045391;28;20439;-62
2023/04/20 04:27:06;;;;;;;0.57;0.57;;;9.00;99.90;;;;;;5024227;28;20038;-62
2023/04/20 04:29:37;;;;;;;0.52;0.52;;;9.00;99.90;;;;;;5025110;28;20113;-62
2023/04/20 04:32:04;;;;;;;0.30;0.30;;;9.10;99.90;;;;;;5015648;28;20121;-62
2023/04/20 04:34:33;;;;;;;5.18;1.50;;;8.90;99.90;;;;;;5031437;28;20050;-62
2023/04/20 04:36:59;;;;;;;0.47;0.47;;;9.00;99.90;;;;;;5017215;28;20052;-62
2023/04/20 04:39:27;;;;;;;0.03;0.03;;;9.00;99.90;;;;;;5030365;28;20136;-62
2023/04/20 04:41:52;;;;;;;0.20;0.20;;;9.00;99.90;;;;;;5031424;28;20107;-62
2023/04/20 04:44:18;;;;;;;0.10;0.10;;;9.00;99.90;;;;;;5025010;28;20038;-62
2023/04/20 04:46:44;;;;;;;0.10;0.10;;;9.10;99.90;;;;;;5013870;28;20080;-62
2023/04/20 04:49:10;;;;;;;2.97;0.68;;;9.00;99.90;;;;;;5023593;28;20842;-61
2023/04/20 04:51:36;;;;;;;1.02;0.82;;;9.00;99.90;;;;;;5013237;28;20577;-62
2023/04/20 04:54:02;;;;;;;0.13;0.13;;;9.00;99.90;;;;;;5017770;28;20132;-62
2023/04/20 04:56:27;;;;;;;0.00;0.00;;;9.00;99.90;;;;;;5023245;28;20083;-62
2023/04/20 04:58:53;;;;;;;0.20;0.20;;;9.00;99.90;;;;;;5020594;28;20128;-62
2023/04/20 05:01:19;;;;;;;0.20;0.20;;;9.00;99.90;;;;;;5028881;28;20038;-61
2023/04/20 05:03:45;;;;;;;1.85;0.85;;;9.00;99.90;;;;;;5019442;28;20052;-62
2023/04/20 05:06:11;;;;;;;0.22;0.22;;;9.00;99.90;;;;;;5032137;28;20501;-62
2023/04/20 05:08:36;;;;;;;0.65;0.65;;;9.10;99.90;;;;;;5030532;28;20493;-62
2023/04/20 05:11:02;;;;;;;0.03;0.03;;;9.10;99.90;;;;;;5016716;28;20056;-62
2023/04/20 05:13:27;;;;;;;0.10;0.10;;;9.10;99.90;;;;;;5019791;28;20045;-62
2023/04/20 05:15:53;;;;;;;0.10;0.10;;;9.10;99.90;;;;;;5030941;28;20042;-62
2023/04/20 05:18:19;;;;;;;0.00;0.00;;;9.10;99.90;;;;;;5023150;28;20408;-62
2023/04/20 05:20:44;;;;;;;0.20;0.20;;;9.10;99.90;;;;;;5025039;28;20041;-62
2023/04/20 05:23:10;;;;;;;0.03;0.03;;;9.10;99.90;;;;;;5030755;28;20053;-62
2023/04/20 05:25:36;;;;;;;0.08;0.08;;;9.20;99.90;;;;;;5026783;28;20037;-62
2023/04/20 05:28:02;;;;;;;0.43;0.43;;;9.20;99.90;;;;;;5021378;28;20049;-61
2023/04/20 05:30:28;;;;;;;0.13;0.13;;;9.20;99.90;;;;;;5030800;28;20043;-61
2023/04/20 05:32:53;;;;;;;0.88;0.75;;;9.30;99.90;;;;;;5031299;28;20116;-61
2023/04/20 05:35:20;;;;;;;0.00;0.00;;;9.30;99.90;;;;;;5018071;28;20042;-62
2023/04/20 05:37:46;;;;;;;0.45;0.30;;;9.30;99.90;;;;;;5016692;28;20073;-62
2023/04/20 05:40:12;;;;;;;0.52;0.52;;;9.30;99.90;;;;;;5015759;28;20571;-62
2023/04/20 05:42:37;;;;;;;0.10;0.10;;;9.30;99.90;;;;;;5019797;28;20077;-61
2023/04/20 05:45:03;;;;;;;0.20;0.20;;;9.30;99.90;;;;;;5015792;28;20394;-62
2023/04/20 05:47:29;;;;;;;0.40;0.40;;;9.30;99.90;;;;;;5018327;28;20122;-62
2023/04/20 05:49:55;;;;;;;0.03;0.03;;;9.40;99.90;;;;;;5030942;28;20073;-62
2023/04/20 05:52:20;;;;;;;1.17;0.80;;;9.40;99.90;;;;;;5024571;28;20556;-61
2023/04/20 05:54:46;;;;;;;0.10;0.10;;;9.30;99.90;;;;;;5023820;28;20046;-62
2023/04/20 05:57:12;;;;;;;0.10;0.10;;;9.40;99.90;;;;;;5030977;28;20107;-62
2023/04/20 05:59:37;;;;;;;0.20;0.20;;;9.40;99.90;;;;;;5016571;28;20409;-61
2023/04/20 06:02:03;;;;;;;1.42;0.77;;;9.40;99.90;;;;;;5018438;28;20042;-61
2023/04/20 06:04:29;;;;;;;0.65;0.65;;;9.40;99.90;;;;;;5012177;28;20049;-62
2023/04/20 06:06:55;;;;;;;0.57;0.57;;;9.40;99.90;;;;;;5029155;28;20144;-61
2023/04/20 06:09:20;;;;;;;2.03;1.88;;;9.50;99.90;;;;;;5030879;28;20132;-62
2023/04/20 06:11:46;;;;;;;0.00;0.00;;;9.50;99.90;;;;;;5027678;28;20112;-62
2023/04/20 06:14:13;;;;;;;1.67;0.55;;;9.50;99.90;;;;;;5026796;28;20038;-62
2023/04/20 06:16:39;;;;;;;0.10;0.10;;;9.50;99.90;;;;;;5030800;28;20575;-61
2023/04/20 06:19:05;;;;;;;0.20;0.20;;;9.50;99.90;;;;;;5030493;28;20045;-62
2023/04/20 06:21:33;;;;;;;0.00;0.00;;;9.50;99.90;;;;;;5021296;28;20044;-62
2023/04/20 06:23:58;;;;;;;0.08;0.08;;;9.60;99.90;;;;;;5022191;28;20092;-61
2023/04/20 06:26:24;;;;;;;0.10;0.10;;;9.50;99.90;;;;;;5013287;28;20065;-62
2023/04/20 06:28:52;;;;;;;0.10;0.10;;;9.50;99.90;;;;;;5024221;28;20060;-62
2023/04/20 06:31:18;;;;;;;0.10;0.10;;;9.50;99.90;;;;;;5020516;28;20052;-62
2023/04/20 06:33:43;;;;;;;0.10;0.10;;;9.50;99.90;;;;;;5012627;28;20133;-62
2023/04/20 06:36:09;;;;;;;0.55;0.55;;;9.50;99.90;;;;;;5024693;28;20121;-62
2023/04/20 06:38:35;;;;;;;0.25;0.25;;;9.50;99.90;;;;;;5016978;28;20042;-62
2023/04/20 06:41:01;;;;;;;0.05;0.05;;;9.40;99.90;;;;;;5028908;28;20103;-61
2023/04/20 06:43:27;;;;;;;0.10;0.10;;;9.50;99.90;;;;;;5028461;28;20144;-62
2023/04/20 06:45:53;;;;;;;0.22;0.22;;;9.60;99.90;;;;;;5011347;28;20045;-61
2023/04/20 06:48:19;;;;;;;0.00;0.00;;;9.60;99.90;;;;;;5022614;28;20394;-62
2023/04/20 06:50:47;;;;;;;0.00;0.00;;;9.50;99.90;;;;;;5022062;28;20053;-62
2023/04/20 06:53:13;;;;;;;0.05;0.05;;;9.50;99.90;;;;;;5010812;28;20049;-61
2023/04/20 06:55:39;;;;;;;0.00;0.00;;;9.60;99.90;;;;;;5013149;28;20050;-61
2023/04/20 06:58:05;;;;;;;0.10;0.10;;;9.70;99.90;;;;;;5009811;28;20172;-62
2023/04/20 07:00:30;;;;;;;0.10;0.10;;;9.50;99.90;;;;;;5016762;28;20068;-61
2023/04/20 07:02:56;;;;;;;0.00;0.00;;;9.60;99.90;;;;;;5029708;28;20658;-62
2023/04/20 07:05:22;;;;;;;0.35;0.35;;;9.60;99.90;;;;;;5027801;28;20096;-61
2023/04/20 07:07:48;;;;;;;0.20;0.20;;;9.60;99.90;;;;;;5022647;28;20056;-61
2023/04/20 07:10:14;;;;;;;0.10;0.10;;;9.60;99.90;;;;;;5021950;28;20473;-62
2023/04/20 07:12:41;;;;;;;0.10;0.10;;;9.60;99.90;;;;;;5015852;28;20053;-62
2023/04/20 07:15:07;;;;;;;0.20;0.20;;;9.60;99.90;;;;;;5017394;28;20042;-62
2023/04/20 07:17:34;;;;;;;0.20;0.20;;;9.50;99.90;;;;;;5028611;28;20046;-61
2023/04/20 07:20:09;;;;;;;0.25;0.25;;;9.60;99.90;;;;;;5016566;28;20060;-61
2023/04/20 07:22:36;;;;;;;0.20;0.20;;;9.50;99.90;;;;;;5024585;28;20061;-62
2023/04/20 07:25:07;;;;;;;0.10;0.10;;;9.40;99.90;;;;;;5019537;28;20536;-61
2023/04/20 07:27:37;;;;;;;0.73;0.73;;;9.40;99.90;;;;;;5026080;28;20049;-62
2023/04/20 07:30:05;;;;;;;0.10;0.10;;;9.30;99.90;;;;;;5028934;28;20049;-61
2023/04/20 07:32:34;;;;;;;0.10;0.10;;;9.30;99.90;;;;;;5031006;28;20033;-61
2023/04/20 07:35:00;;;;;;;0.43;0.43;;;9.10;99.90;;;;;;5023564;28;20185;-61
2023/04/20 07:37:26;;;;;;;0.00;0.00;;;9.10;99.90;;;;;;5017346;28;20674;-61
2023/04/20 07:39:52;;;;;;;0.00;0.00;;;9.00;99.90;;;;;;5032323;28;20128;-62
2023/04/20 07:42:18;;;;;;;0.10;0.10;;;8.90;99.90;;;;;;5027668;28;20052;-62
2023/04/20 07:44:44;;;;;;;0.43;0.43;;;8.70;99.90;;;;;;5023388;28;20412;-62
2023/04/20 07:47:10;;;;;;;0.10;0.10;;;8.60;99.90;;;;;;5033629;28;20041;-62
2023/04/20 07:49:37;;;;;;;0.08;0.08;;;8.50;99.90;;;;;;5022038;28;20497;-61
2023/04/20 07:52:03;;;;;;;0.10;0.10;;;8.50;99.90;;;;;;5018152;28;20050;-61
2023/04/20 07:54:28;;;;;;;0.10;0.10;;;8.50;99.90;;;;;;5029363;28;20047;-62
2023/04/20 07:56:54;;;;;;;0.00;0.00;;;8.40;99.90;;;;;;5018742;28;20057;-62
2023/04/20 07:59:19;;;;;;;3.60;1.42;;;8.30;99.90;;;;;;5033427;28;20532;-62
2023/04/20 08:01:45;;;;;;;0.32;0.32;;;8.40;99.90;;;;;;5019691;28;20379;-62
2023/04/20 08:04:11;;;;;;;0.08;0.08;;;8.30;99.90;;;;;;5019257;28;20135;-61
2023/04/20 08:06:36;;;;;;;0.00;0.00;;;8.40;99.90;;;;;;5030489;28;20037;-62
2023/04/20 08:09:02;;;;;;;0.10;0.10;;;8.40;99.90;;;;;;5027644;28;20446;-62
2023/04/20 08:11:28;;;;;;;0.10;0.10;;;8.40;99.90;;;;;;5018976;28;20041;-62
2023/04/20 08:13:54;;;;;;;0.10;0.10;;;8.40;99.90;;;;;;5032965;28;20109;-62
2023/04/20 08:16:20;;;;;;;0.10;0.10;;;8.30;99.90;;;;;;5028472;28;20417;-61
2023/04/20 08:18:45;;;;;;;0.10;0.10;;;8.40;99.90;;;;;;5013864;28;20108;-62
2023/04/20 08:21:11;;;;;;;4.13;3.40;;;8.40;99.90;;;;;;5026462;28;20107;-61
2023/04/20 08:23:36;;;;;;;0.10;0.10;;;8.40;99.90;;;;;;5017014;28;20042;-61
2023/04/20 08:26:03;;;;;;;0.20;0.20;;;8.40;99.90;;;;;;5029220;28;20057;-62
2023/04/20 08:28:28;;;;;;;0.30;0.25;;;8.40;99.90;;;;;;5032725;28;20056;-62
2023/04/20 08:30:54;;;;;;;0.10;0.10;;;8.30;99.90;;;;;;5029104;28;20038;-61
2023/04/20 08:33:19;;;;;;;0.03;0.03;;;8.30;99.90;;;;;;5022539;28;20045;-61
2023/04/20 08:35:45;;;;;;;0.10;0.10;;;8.50;99.90;;;;;;5029747;28;20053;-62
2023/04/20 08:38:11;;;;;;;0.20;0.20;;;8.50;99.90;;;;;;5022613;28;20124;-61
2023/04/20 08:40:36;;;;;;;0.15;0.15;;;8.50;99.90;;;;;;5024580;28;20401;-62
2023/04/20 08:43:02;;;;;;;1.15;1.10;;;8.40;99.90;;;;;;5024061;28;20049;-61
2023/04/20 08:45:29;;;;;;;0.10;0.10;;;8.50;99.90;;;;;;5017451;28;20132;-61
2023/04/20 08:47:57;;;;;;;0.10;0.10;;;8.40;99.90;;;;;;5031461;28;20048;-61
2023/04/20 08:50:23;;;;;;;2.28;0.77;;;8.40;99.90;;;;;;5029073;28;20375;-62
2023/04/20 08:52:48;;;;;;;2.17;1.30;;;8.60;99.90;;;;;;5011685;28;20145;-62
2023/04/20 08:55:18;;;;;;;0.10;0.10;;;8.60;99.90;;;;;;5013931;28;20050;-61
2023/04/20 08:57:46;;;;;;;0.10;0.10;;;8.70;99.90;;;;;;5032364;28;20041;-62
2023/04/20 09:00:12;;;;;;;0.00;0.00;;;8.80;99.90;;;;;;5026712;28;20038;-61
2023/04/20 09:02:51;;;;;;;0.10;0.10;;;8.80;99.90;;;;;;5021138;28;20144;-61
2023/04/20 09:05:27;;;;;;;0.10;0.10;;;8.70;99.90;;;;;;5030737;28;20124;-61
2023/04/20 09:07:56;;;;;;;0.10;0.10;;;8.80;99.90;;;;;;5029753;28;20053;-61
2023/04/20 09:10:25;;;;;;;0.10;0.10;;;8.80;99.90;;;;;;5019417;28;20046;-61
2023/04/20 09:12:52;;;;;;;0.10;0.10;;;8.70;99.90;;;;;;5025406;28;20038;-61
2023/04/20 09:15:30;;;;;;;1.35;0.95;;;8.60;99.90;;;;;;5031044;28;20103;-61
2023/04/20 09:17:56;;;;;;;0.00;0.00;;;8.70;99.90;;;;;;5045629;28;20052;-61
2023/04/20 09:20:29;;;;;;;0.10;0.10;;;8.70;99.90;;;;;;5015094;28;20116;-61
2023/04/20 09:22:55;;;;;;;0.10;0.10;;;8.60;99.90;;;;;;5028437;28;20046;-61
2023/04/20 09:25:22;;;;;;;0.10;0.10;;;8.50;99.90;;;;;;5030387;28;20045;-62
2023/04/20 09:27:59;;;;;;;0.52;0.52;;;8.60;99.90;;;;;;5023883;28;20074;-61
2023/04/20 09:30:24;;;;;;;0.10;0.10;;;8.50;99.90;;;;;;5024252;28;20107;-61
2023/04/20 09:33:01;;;;;;;0.00;0.00;;;8.60;99.90;;;;;;5031440;28;20046;-61
2023/04/20 09:35:26;;;;;;;1.05;1.05;;;8.70;99.90;;;;;;5030389;28;20489;-61
2023/04/20 09:37:53;;;;;;;0.10;0.10;;;8.80;99.90;;;;;;5017777;28;20085;-62
2023/04/20 09:40:21;;;;;;;0.17;0.17;;;8.70;99.90;;;;;;5024791;28;20084;-61
2023/04/20 09:42:47;;;;;;;0.10;0.10;;;8.70;99.90;;;;;;5030414;28;20062;-61
2023/04/20 09:45:15;;;;;;;0.00;0.00;;;8.70;99.90;;;;;;5012589;28;20077;-62
2023/04/20 09:47:41;;;;;;;0.30;0.30;;;8.80;99.90;;;;;;5022962;28;20033;-61
2023/04/20 09:50:10;;;;;;;0.10;0.10;;;8.70;99.90;;;;;;5029529;28;20049;-61
2023/04/20 09:52:37;;;;;;;0.08;0.08;;;8.80;99.90;;;;;;5016808;28;20045;-61
2023/04/20 09:55:05;;;;;;;0.10;0.10;;;8.90;99.90;;;;;;5022922;28;20116;-61
2023/04/20 09:57:31;;;;;;;0.17;0.17;;;9.00;99.90;;;;;;5028495;28;20052;-62
2023/04/20 09:59:58;;;;;;;0.40;0.40;;;9.00;99.90;;;;;;5020280;28;20375;-61
2023/04/20 10:02:24;;;;;;;0.10;0.10;;;8.80;99.90;;;;;;5030738;28;20046;-61
2023/04/20 10:04:53;;;;;;;0.73;0.73;;;8.80;99.90;;;;;;5016046;28;20149;-61
2023/04/20 10:07:29;;;;;;;0.45;0.45;;;9.00;99.90;;;;;;5019971;28;20393;-62
2023/04/20 10:10:08;;;;;;;0.20;0.20;;;9.20;99.90;;;;;;5030494;28;20049;-61
2023/04/20 10:12:55;;;;;;;0.00;0.00;;;9.30;99.90;;;;;;5024436;28;20128;-61
2023/04/20 10:15:23;;;;;;;0.22;0.22;;;9.30;99.90;;;;;;5022447;28;20041;-62
2023/04/20 10:17:49;;;;;;;0.10;0.10;;;9.30;99.90;;;;;;5027532;28;20836;-61
2023/04/20 10:20:26;;;;;;;0.00;0.00;;;9.10;99.90;;;;;;5021728;28;20064;-61
2023/04/20 10:22:52;;;;;;;0.82;0.82;;;9.30;99.90;;;;;;5026814;28;20049;-61
2023/04/20 10:25:23;;;;;;;0.15;0.15;;;9.60;99.90;;;;;;5014577;28;20038;-62
2023/04/20 10:28:03;;;;;;;0.10;0.10;;;9.80;99.90;;;;;;5028090;28;20054;-61
2023/04/20 10:30:30;;;;;;;0.25;0.25;;;10.10;99.90;;;;;;5047815;28;20042;-62
2023/04/20 10:33:06;;;;;;;0.00;0.00;;;10.30;99.90;;;;;;5021747;28;20524;-61
2023/04/20 10:35:48;;;;;;;0.17;0.17;;;10.20;99.90;;;;;;5029497;28;20049;-62
2023/04/20 10:38:15;;;;;;;0.00;0.00;;;10.20;99.90;;;;;;5017526;28;20095;-62
2023/04/20 10:40:40;;;;;;;0.10;0.10;;;10.10;99.90;;;;;;5016400;28;20091;-61
2023/04/20 10:43:22;;;;;;;0.30;0.30;;;10.00;99.90;;;;;;5026108;28;20046;-62
2023/04/20 10:45:49;;;;;;;0.45;0.45;;;10.00;99.90;;;;;;5016644;28;20076;-61
2023/04/20 10:48:15;;;;;;;0.10;0.10;;;9.90;99.90;;;;;;5030264;28;20037;-62
2023/04/20 10:50:41;;;;;;;0.00;0.00;;;9.90;99.90;;;;;;5024257;28;20497;-62
2023/04/20 10:53:20;;;;;;;0.20;0.20;;;9.90;99.90;;;;;;5010482;28;20085;-62
2023/04/20 10:55:46;;;;;;;0.35;0.35;;;10.00;99.90;;;;;;5017515;28;20041;-61
2023/04/20 10:58:23;;;;;;;0.10;0.10;;;9.90;99.90;;;;;;5030242;28;20041;-62
2023/04/20 11:01:03;;;;;;;2.60;1.80;;;10.00;99.90;;;;;;5029351;28;20108;-61
2023/04/20 11:03:30;;;;;;;0.08;0.08;;;9.90;99.90;;;;;;5013716;28;20041;-61
2023/04/20 11:05:59;;;;;;;0.00;0.00;;;9.80;99.90;;;;;;5022761;28;20033;-62
2023/04/20 11:08:42;;;;;;;0.20;0.20;;;9.70;99.90;;;;;;5033208;28;20120;-61
2023/04/20 11:11:18;;;;;;;0.43;0.43;;;9.80;99.90;;;;;;5027120;28;20563;-62
2023/04/20 11:13:43;;;;;;;0.50;0.50;;;9.80;99.90;;;;;;5025896;28;20037;-61
2023/04/20 11:16:11;;;;;;;0.25;0.25;;;9.70;99.90;;;;;;5019957;28;20049;-62
2023/04/20 11:18:50;;;;;;;0.10;0.10;;;9.60;99.90;;;;;;5034446;28;20037;-61
2023/04/20 11:21:16;;;;;;;0.00;0.00;;;9.60;99.90;;;;;;5022597;28;20037;-61
2023/04/20 11:23:43;;;;;;;0.10;0.10;;;9.60;99.90;;;;;;5036147;28;20056;-61
2023/04/20 11:26:09;;;;;;;0.00;0.00;;;9.70;99.90;;;;;;5029067;28;20050;-62
2023/04/20 11:28:35;;;;;;;2.72;1.55;;;9.60;99.90;;;;;;5026820;28;20041;-61
2023/04/20 11:31:01;;;;;;;0.10;0.10;;;9.60;99.90;;;;;;5036382;28;20378;-62
2023/04/20 11:33:28;;;;;;;0.30;0.30;;;9.60;99.90;;;;;;5020371;28;20049;-62
2023/04/20 11:35:55;;;;;;;0.15;0.15;;;9.60;99.90;;;;;;5028494;28;20541;-61
2023/04/20 11:38:31;;;;;;;0.00;0.00;;;9.60;99.90;;;;;;5023892;28;20606;-62
2023/04/20 11:41:03;;;;;;;0.40;0.40;;;9.50;99.90;;;;;;5031491;28;20049;-62
2023/04/20 11:43:31;;;;;;;0.10;0.10;;;9.60;99.90;;;;;;5028287;28;20049;-62
2023/04/20 11:45:58;;;;;;;0.10;0.10;;;9.60;99.90;;;;;;5035964;28;20088;-61
2023/04/20 11:48:24;;;;;;;0.05;0.05;;;9.60;99.90;;;;;;5021032;28;20077;-61
2023/04/20 11:50:50;;;;;;;1.10;0.90;;;9.60;99.90;;;;;;5026962;28;20054;-62
2023/04/20 11:53:16;;;;;;;0.20;0.20;;;9.50;99.90;;;;;;5014168;28;20057;-62
2023/04/20 11:55:42;;;;;;;1.05;0.95;;;9.50;99.90;;;;;;5016344;28;20049;-62
2023/04/20 11:58:07;;;;;;;0.10;0.10;;;9.50;99.90;;;;;;5021465;28;20042;-62
2023/04/20 12:00:33;;;;;;;0.10;0.10;;;9.50;99.90;;;;;;5036016;28;20041;-62
2023/04/20 12:03:00;;;;;;;0.10;0.10;;;9.50;99.90;;;;;;5035078;28;20089;-61
2023/04/20 12:05:27;;;;;;;0.00;0.00;;;9.70;99.90;;;;;;5033631;28;21058;-61
2023/04/20 12:07:52;;;;;;;0.22;0.22;;;9.90;99.90;;;;;;5027142;28;20045;-62
2023/04/20 12:10:18;;;;;;;29.65;1.05;;;9.90;99.90;;;;;;5031901;28;20049;-62
2023/04/20 12:12:44;;;;;;;0.15;0.15;;;10.00;99.90;;;;;;5026115;28;20038;-61
2023/04/20 12:15:09;;;;;;;0.20;0.20;;;9.90;99.90;;;;;;5034123;28;20042;-62
2023/04/20 12:17:35;;;;;;;0.10;0.10;;;10.10;99.90;;;;;;5024926;28;20125;-62
2023/04/20 12:20:01;;;;;;;0.40;0.40;;;10.10;99.90;;;;;;5013993;28;20133;-62
2023/04/20 12:22:27;;;;;;;1.65;1.48;;;10.10;99.90;;;;;;5014698;28;20801;-62
2023/04/20 12:24:52;;;;;;;0.10;0.10;;;10.10;99.90;;;;;;5025240;28;20046;-62
2023/04/20 12:27:19;;;;;;;0.20;0.20;;;10.20;99.90;;;;;;5017767;28;20048;-61
2023/04/20 12:29:44;;;;;;;0.10;0.10;;;10.40;99.90;;;;;;5016876;28;20046;-62
2023/04/20 12:32:10;;;;;;;2.38;1.50;;;10.40;99.90;;;;;;5021767;28;20042;-62
2023/04/20 12:34:35;;;;;;;0.30;0.30;;;10.40;99.90;;;;;;5032434;28;20405;-62
2023/04/20 12:37:01;;;;;;;1.10;0.80;;;10.50;99.90;;;;;;5019512;28;20033;-62
2023/04/20 12:39:27;;;;;;;1.55;0.73;;;10.50;99.90;;;;;;5025304;28;20052;-61
2023/04/20 12:41:52;;;;;;;0.30;0.30;;;10.60;99.90;;;;;;5018057;28;20490;-62
2023/04/20 12:44:18;;;;;;;0.30;0.30;;;10.70;99.90;;;;;;5022130;28;20050;-61
2023/04/20 12:46:44;;;;;;;0.10;0.10;;;10.70;99.90;;;;;;5024594;28;20501;-61
2023/04/20 12:49:09;;;;;;;0.57;0.57;;;10.80;99.90;;;;;;5019356;28;20370;-61
2023/04/20 12:51:35;;;;;;;0.10;0.10;;;10.80;99.90;;;;;;5026509;28;20819;-62
2023/04/20 12:54:01;;;;;;;1.65;1.55;;;10.90;99.90;;;;;;5020868;28;20065;-61